TimeEDT,TemperatureF,Dew PointF,Humidity,Sea Level PressureIn,VisibilityMPH,Wind Direction,Wind SpeedMPH,Gust SpeedMPH,PrecipitationIn,Events,Conditions,WindDirDegrees,DateUTC
12:54 AM,77.0,71.1,82,30.22,10.0,SSE,6.9,-,N/A,,Clear,150,2013-07-15 04:54:00
1:54 AM,75.9,70.0,82,30.22,10.0,SE,4.6,-,N/A,,Partly Cloudy,130,2013-07-15 05:54:00
2:54 AM,75.0,69.1,82,30.22,10.0,SE,3.5,-,N/A,,Mostly Cloudy,140,2013-07-15 06:54:00
3:54 AM,75.0,69.1,82,30.23,10.0,SE,4.6,-,N/A,,Mostly Cloudy,140,2013-07-15 07:54:00
4:54 AM,73.9,68.0,82,30.24,10.0,SSE,5.8,-,N/A,,Clear,150,2013-07-15 08:54:00
5:54 AM,73.0,66.9,81,30.26,10.0,SE,5.8,-,N/A,,Clear,130,2013-07-15 09:54:00
6:54 AM,73.0,66.9,81,30.27,10.0,SE,4.6,-,N/A,,Clear,140,2013-07-15 10:54:00
7:54 AM,75.9,68.0,76,30.28,10.0,SE,4.6,-,N/A,,Clear,140,2013-07-15 11:54:00
8:54 AM,79.0,68.0,69,30.30,10.0,SE,8.1,-,N/A,,Clear,140,2013-07-15 12:54:00
9:54 AM,81.0,68.0,65,30.30,10.0,SSE,9.2,-,N/A,,Clear,160,2013-07-15 13:54:00
10:54 AM,82.0,68.0,62,30.30,10.0,SSE,4.6,-,N/A,,Clear,150,2013-07-15 14:54:00
11:54 AM,86.0,66.9,53,30.30,10.0,Variable,4.6,-,N/A,,Clear,0,2013-07-15 15:54:00
12:54 PM,88.0,69.1,53,30.30,10.0,Calm,Calm,-,N/A,,Partly Cloudy,0,2013-07-15 16:54:00
1:54 PM,88.0,66.9,49,30.28,10.0,Calm,Calm,-,N/A,,Mostly Cloudy,0,2013-07-15 17:54:00
2:54 PM,90.0,69.1,50,30.27,10.0,Calm,Calm,-,N/A,,Overcast,0,2013-07-15 18:54:00
3:54 PM,87.1,69.1,55,30.25,10.0,NE,9.2,-,N/A,,Mostly Cloudy,50,2013-07-15 19:54:00
4:54 PM,89.1,70.0,53,30.25,10.0,ENE,10.4,-,N/A,,Mostly Cloudy,60,2013-07-15 20:54:00
5:54 PM,89.1,69.1,52,30.24,10.0,ENE,6.9,-,N/A,,Partly Cloudy,70,2013-07-15 21:54:00
6:54 PM,88.0,66.9,49,30.22,10.0,East,8.1,-,N/A,,Clear,100,2013-07-15 22:54:00
7:54 PM,87.1,68.0,53,30.22,10.0,ESE,5.8,-,N/A,,Clear,110,2013-07-15 23:54:00
8:54 PM,84.0,68.0,58,30.23,10.0,ESE,3.5,-,N/A,,Clear,120,2013-07-16 00:54:00
9:54 PM,82.0,68.0,62,30.25,10.0,Calm,Calm,-,N/A,,Clear,0,2013-07-16 01:54:00
10:54 PM,75.9,70.0,82,30.27,10.0,Calm,Calm,-,N/A,,Clear,0,2013-07-16 02:54:00
11:54 PM,75.0,70.0,84,30.28,10.0,Calm,Calm,-,0.00,,Clear,0,2013-07-16 03:54:00